Time;durP1;ratioP1;P1;durP2;ratioP2;P2;SDS_P1;SDS_P2;PMS_P1;PMS_P2;Temp;Humidity;BMP_temperature;BMP_pressure;BME280_temperature;BME280_humidity;BME280_pressure;Samples;Min_cycle;Max_cycle;Signal;HPM_P1;HPM_P2
2023/08/13 01:34:59;;;;;;;18.17;14.43;;;14.30;99.90;;;;;;4639672;29;20362;-84
2023/08/13 01:59:48;;;;;;;15.37;13.70;;;15.10;99.90;;;;;;4678944;29;20398;-82
2023/08/13 02:25:42;;;;;;;13.37;12.03;;;15.40;99.90;;;;;;4661818;29;20222;-86
2023/08/13 02:46:07;;;;;;;14.20;11.83;;;15.20;99.90;;;;;;4605512;30;20244;-84
2023/08/13 03:16:15;;;;;;;16.77;12.73;;;14.90;99.90;;;;;;4627684;30;20220;-85
2023/08/13 03:36:18;;;;;;;13.10;11.77;;;15.00;99.90;;;;;;4639202;30;20437;-84
2023/08/13 03:56:29;;;;;;;11.97;10.80;;;14.80;99.90;;;;;;4663677;29;20287;-83
2023/08/13 04:21:58;;;;;;;12.77;11.47;;;15.30;99.90;;;;;;4571208;30;21173;-85
2023/08/13 05:33:13;;;;;;;10.87;8.87;;;19.00;95.60;;;;;;4645741;30;20689;-84
2023/08/13 05:58:37;;;;;;;8.77;7.88;;;21.30;90.10;;;;;;4767693;29;20214;-85
2023/08/13 06:33:36;;;;;;;7.85;7.13;;;22.30;86.20;;;;;;4701314;29;20576;-85
2023/08/13 06:54:34;;;;;;;7.15;6.53;;;24.00;82.10;;;;;;4836407;29;20261;-84
2023/08/13 07:19:16;;;;;;;8.38;7.28;;;24.40;82.40;;;;;;4716116;29;21151;-86
2023/08/13 08:05:30;;;;;;;8.23;6.40;;;25.40;81.80;;;;;;4953807;28;20216;-84
2023/08/13 08:35:19;;;;;;;8.25;6.15;;;26.70;77.90;;;;;;4888586;28;20215;-85
2023/08/13 08:55:43;;;;;;;6.18;5.55;;;27.20;69.10;;;;;;4732771;29;20211;-85
2023/08/13 09:16:19;;;;;;;6.95;5.82;;;27.50;68.20;;;;;;4704979;29;20320;-83
2023/08/13 09:56:59;;;;;;;10.65;9.38;;;28.20;66.40;;;;;;4774664;29;20230;-81
2023/08/13 10:17:23;;;;;;;6.70;6.07;;;28.30;65.50;;;;;;4751492;29;20917;-85
2023/08/13 10:42:49;;;;;;;6.90;5.70;;;28.90;65.70;;;;;;4727418;29;20268;-83
2023/08/13 11:07:28;;;;;;;5.38;4.60;;;28.90;64.90;;;;;;4641512;29;20656;-81
2023/08/13 11:38:26;;;;;;;4.80;4.40;;;29.40;64.30;;;;;;4898506;28;20708;-85
2023/08/13 12:08:20;;;;;;;4.20;3.80;;;29.60;63.40;;;;;;4672868;29;20617;-86
2023/08/13 12:54:24;;;;;;;4.97;4.57;;;31.20;62.20;;;;;;4626341;30;20688;-84
2023/08/13 13:19:51;;;;;;;4.60;4.15;;;31.00;61.80;;;;;;4689465;29;20205;-84
2023/08/13 13:54:47;;;;;;;3.90;3.60;;;32.50;61.40;;;;;;4728612;29;20231;-87
2023/08/13 14:20:50;;;;;;;4.65;4.25;;;34.30;60.60;;;;;;4727840;29;20208;-86
2023/08/13 14:56:13;;;;;;;3.42;3.22;;;33.40;60.80;;;;;;4857988;28;20467;-84
2023/08/13 15:26:43;;;;;;;4.68;3.70;;;34.20;56.70;;;;;;4745015;29;20198;-82
2023/08/13 15:52:08;;;;;;;3.53;3.33;;;33.70;56.80;;;;;;4736519;29;20332;-84
2023/08/13 15:56:29;;;;;;;3.50;3.20;;;33.80;57.10;;;;;;4711519;29;20647;-86
2023/08/13 16:21:52;;;;;;;3.95;3.53;;;30.60;58.50;;;;;;4702263;29;20472;-83
2023/08/13 16:42:45;;;;;;;4.32;3.92;;;28.40;61.00;;;;;;4798034;29;20356;-87
2023/08/13 17:03:09;;;;;;;4.00;3.60;;;27.60;68.40;;;;;;4947287;28;20276;-85
2023/08/13 17:07:28;;;;;;;4.40;3.42;;;27.60;70.90;;;;;;4910672;28;20589;-84
2023/08/13 17:28:23;;;;;;;4.40;3.47;;;27.00;75.30;;;;;;4750549;29;20245;-84
2023/08/13 17:53:47;;;;;;;3.97;3.67;;;26.40;80.30;;;;;;4648832;30;20360;-85
2023/08/13 18:29:03;;;;;;;6.35;4.22;;;25.20;87.90;;;;;;4969618;28;20240;-83
2023/08/13 18:54:37;;;;;;;6.28;4.95;;;23.90;94.20;;;;;;4859525;28;20201;-84
2023/08/13 19:40:15;;;;;;;6.15;5.65;;;22.40;99.90;;;;;;4982397;28;20203;-83
2023/08/13 20:10:14;;;;;;;6.68;6.00;;;21.60;99.90;;;;;;4771276;29;20369;-82
2023/08/13 20:31:01;;;;;;;6.57;5.97;;;21.10;99.90;;;;;;4764052;29;20229;-82
2023/08/13 21:01:06;;;;;;;7.20;5.80;;;20.60;99.90;;;;;;4693449;29;20551;-84
2023/08/13 21:21:17;;;;;;;7.40;6.40;;;20.30;99.90;;;;;;4791257;29;20754;-84
2023/08/13 21:46:52;;;;;;;8.37;7.17;;;19.80;99.90;;;;;;4681495;30;20281;-83
2023/08/13 22:21:56;;;;;;;7.97;7.20;;;19.20;99.90;;;;;;4792078;29;20330;-84
2023/08/13 22:48:00;;;;;;;8.47;7.17;;;19.30;99.90;;;;;;4778675;29;20284;-83
2023/08/13 23:18:25;;;;;;;7.97;7.07;;;19.00;99.90;;;;;;4823617;29;20885;-82
2023/08/13 23:43:44;;;;;;;9.03;7.17;;;19.60;99.90;;;;;;4795128;29;20432;-84
